Forside
METAR-TAF:

METAR-TAF

Lufthavne :

St. Clair County International Airport

Port Huron, Michigan, USA

Breddekreds: 42-55N, længdekreds: 082-32W, højde: 198 m

Aktuelle vejr

Denne rapport blev lavet for 19 minutter siden, kl. 21:55 UTC
Vind 5 kt fra vest, varierende mellem vestsydvest og vestnordvest
Temperatur 2°C
Fugtighed 87%
Tryk 1007 hPa
Sigt: 8.0 km
Overskyet i en højde af 1300 ft
let sne

METAR: KPHN 262155Z AUTO 27005KT 240V300 5SM -SN OVC013 02/00 A2974 RMK AO2

Tid: 17:14 (22:14 UTC)


TAF: fraværende

Vejrobservationer og prognoser fra mere end 4000 lufthavne (METAR og TAF).

De gule og røde prikker repræsenterer de meteorologiske stationer.

Flyt musen over at se navnet på stationen.

Så klik over at se vejr observationer og prognoser.

At skifte det kort: Klik på de grønne knapper med et sort kors for at zoome ind; på den grønne knap med en bindestreg for at zoome ud; eller på de grønne pile for tilstødende kort.


METAR-TAF: